Airfield :
LOGIN :

Register | Disclaimer

   EN    FR    IT 

 










Legend :    VFR   Marginal VFR   IFR   Intensive IFR   Very Intensive IFR
Visi :
Ceiling :
>= 8 km
>= 3000ft
5 to 8 km
1000 to 3000 ft
1500m to 5 km
500 to 1000 ft
800 to 1500m
200 to 500 ft
< 800m
< 200 ft
Symbols :   Thunderstorms  Fog  Heavy snow  Heavy precipitations  Wind > 20 kt
SIGMETs :     Misc.  Thunderstorms  Icing  Turbulence  Mountain Waves  Volcanic Ashes







- Airport Elevation : 1106 ft
- Download approach charts


LFSO - Nancy / Ochey

CURRENT METAR :
  • 101300Z AUTO 28008KT 9999 -RA SCT015 BKN025 BKN034 06/04 Q1024 TEMPO 4500 -SHRA BKN009

EXPIRED METARs :
  • 101230Z AUTO 30008KT 270V330 9999 -RA FEW008 BKN017 BKN024 06/04 Q1025 TEMPO 4500 -SHRA BKN009
  • 101200Z AUTO 26008KT 230V290 9999 BKN015 BKN023 BKN040 06/04 Q1025 TEMPO BKN009
  • 101130Z AUTO 28008KT 250V320 9999 -DZ FEW017/// BKN039/// OVC066/// ///TCU 06/04 Q1025 TEMPO BKN009
  • 101100Z AUTO 28010KT 230V310 9999 -RA BKN017 BKN031 BKN037 06/04 Q1025 TEMPO BKN009
  • 101030Z AUTO 28009KT 250V320 9999 SCT018/// SCT024/// OVC043/// ///TCU 07/04 Q1025 TEMPO BKN009

TAF AMD TAF LFSO
Valid from the 10 at 11:00 until the 11 at 09:00 UTC


101157Z 1011/1109 28015KT 9999 BKN015 BKN040
TEMPO 1011/1014 4500 -SHRA BKN009
TEMPO 1018/1101 30005KT BKN012
TEMPO 1101/1108 26005KT OVC006
No reported NOTAMs for that airfield.



MET'MAP, your aeronautical weather chart ! - Copyright ORBIFLY December 2007 - Disclaimer

ORBIFLY MET'MAP TEAM :

Programming & Development : Alexandra Zaïnal
Concept & Development : Baudouin d'Aumeries
Co-Development & Prog : Marc-Olivier Méhu
Technical & hardware support : Manuel Goepfert

Contact : metmap@orbifly.com




SOURCES & CREDITS :

   NOAA